createdAt,value
2023-03-30T00:01:10.656Z,13.23
2023-03-30T00:03:40.000Z,13.31
2023-03-30T00:06:08.948Z,13.23
2023-03-30T00:08:36.721Z,13.32
2023-03-30T00:11:06.716Z,13.35
2023-03-30T00:13:35.793Z,13.25
2023-03-30T00:16:03.848Z,13.06
2023-03-30T00:18:31.348Z,12.93
2023-03-30T00:21:00.115Z,12.96
2023-03-30T00:23:27.540Z,13.09
2023-03-30T00:25:55.374Z,12.99
2023-03-30T00:28:22.891Z,12.94
2023-03-30T00:30:51.063Z,12.43
2023-03-30T00:33:18.590Z,12.26
2023-03-30T00:35:52.964Z,12.25
2023-03-30T00:38:22.154Z,12.53
2023-03-30T00:40:52.652Z,12.73
2023-03-30T00:43:20.938Z,12.81
2023-03-30T00:45:48.958Z,12.88
2023-03-30T00:48:22.109Z,13.07
2023-03-30T00:50:54.575Z,13.25
2023-03-30T00:53:26.269Z,13.21
2023-03-30T00:55:55.231Z,12.98
2023-03-30T00:58:24.943Z,13.08
2023-03-30T01:00:53.153Z,11.58
2023-03-30T01:03:25.548Z,11.47
2023-03-30T01:05:53.700Z,12.44
2023-03-30T01:08:27.164Z,11.22
2023-03-30T01:10:56.332Z,12.29
2023-03-30T01:13:23.885Z,12.82
2023-03-30T01:16:02.220Z,12.58
2023-03-30T01:18:47.704Z,12.56
2023-03-30T01:22:00.305Z,12.80
2023-03-30T01:25:03.014Z,12.61
2023-03-30T01:28:09.716Z,12.68
2023-03-30T01:31:08.255Z,12.20
2023-03-30T01:33:58.613Z,12.16
2023-03-30T01:36:54.099Z,12.57
2023-03-30T01:39:33.379Z,12.86
2023-03-30T01:42:10.388Z,12.85
2023-03-30T01:44:44.982Z,12.97
2023-03-30T01:47:20.080Z,12.95
2023-03-30T01:49:57.467Z,12.70
2023-03-30T01:52:31.755Z,12.84
2023-03-30T01:55:04.654Z,12.88
2023-03-30T01:57:36.947Z,12.95
2023-03-30T02:00:13.789Z,12.86
2023-03-30T02:02:44.814Z,12.69
2023-03-30T02:05:17.866Z,12.78
2023-03-30T02:07:48.778Z,12.81
2023-03-30T02:10:20.446Z,12.85
2023-03-30T02:12:48.377Z,12.73
2023-03-30T02:15:17.617Z,12.83
2023-03-30T02:17:47.561Z,12.89
2023-03-30T02:20:17.527Z,12.80
2023-03-30T02:22:45.787Z,12.53
2023-03-30T02:25:13.943Z,12.65
2023-03-30T02:27:42.914Z,12.89
2023-03-30T02:30:11.238Z,12.75
2023-03-30T02:32:43.200Z,12.90
2023-03-30T02:35:48.013Z,12.91
2023-03-30T02:38:34.842Z,12.88
2023-03-30T02:41:12.695Z,12.61
2023-03-30T02:43:50.948Z,12.81
2023-03-30T02:46:32.373Z,12.89
2023-03-30T02:49:14.097Z,12.85
2023-03-30T02:51:46.999Z,12.92
2023-03-30T02:54:28.522Z,12.94
2023-03-30T02:57:05.180Z,13.00
2023-03-30T02:59:41.347Z,12.97
2023-03-30T03:02:13.082Z,12.96
2023-03-30T03:04:43.717Z,12.95
2023-03-30T03:07:12.116Z,12.88
2023-03-30T03:09:39.572Z,12.89
2023-03-30T03:12:07.576Z,12.89
2023-03-30T03:14:36.403Z,12.93
2023-03-30T03:17:05.127Z,12.97
2023-03-30T03:19:32.952Z,12.89
2023-03-30T03:22:00.370Z,12.90
2023-03-30T03:24:27.970Z,12.84
2023-03-30T03:26:55.602Z,12.81
2023-03-30T03:29:23.080Z,12.89
2023-03-30T03:31:51.942Z,12.96
2023-03-30T03:34:20.205Z,13.01
2023-03-30T03:36:52.214Z,12.95
2023-03-30T03:39:19.873Z,12.63
2023-03-30T03:41:47.277Z,12.37
2023-03-30T03:44:14.839Z,12.84
2023-03-30T03:46:42.284Z,12.97
2023-03-30T03:49:11.846Z,12.53
2023-03-30T03:51:39.541Z,12.27
2023-03-30T03:54:08.049Z,12.55
2023-03-30T03:56:35.490Z,12.84
2023-03-30T03:59:04.706Z,12.08
2023-03-30T04:01:32.942Z,12.75
2023-03-30T04:04:00.539Z,12.62
2023-03-30T04:06:29.597Z,12.65
2023-03-30T04:08:57.223Z,12.85
2023-03-30T04:11:24.646Z,12.76
2023-03-30T04:13:52.084Z,12.87
2023-03-30T04:16:19.570Z,12.40
2023-03-30T04:18:47.014Z,12.78
2023-03-30T04:21:17.601Z,12.91
2023-03-30T04:23:49.066Z,12.95
2023-03-30T04:26:17.711Z,13.06
2023-03-30T04:28:46.808Z,13.08
2023-03-30T04:31:14.637Z,12.76
2023-03-30T04:33:52.103Z,12.72
2023-03-30T04:36:20.214Z,12.85
2023-03-30T04:38:58.429Z,12.97
2023-03-30T04:41:33.347Z,12.56
2023-03-30T04:44:03.157Z,12.53
2023-03-30T04:46:30.999Z,12.54
2023-03-30T04:48:58.626Z,12.89
2023-03-30T04:51:26.168Z,12.78
2023-03-30T04:53:55.453Z,12.99
2023-03-30T04:56:22.875Z,12.86
2023-03-30T04:58:50.328Z,12.88
2023-03-30T05:01:17.764Z,13.03
2023-03-30T05:03:45.534Z,12.80
2023-03-30T05:06:13.641Z,12.93
2023-03-30T05:08:41.895Z,13.02
2023-03-30T05:11:11.719Z,12.61
2023-03-30T05:13:40.487Z,12.83
2023-03-30T05:16:09.135Z,12.75
2023-03-30T05:18:38.755Z,12.91
2023-03-30T05:21:06.713Z,12.67
2023-03-30T05:23:34.276Z,11.52
2023-03-30T05:26:03.802Z,12.25
2023-03-30T05:28:32.671Z,12.83
2023-03-30T05:31:00.680Z,12.98
2023-03-30T05:33:28.192Z,13.07
2023-03-30T05:35:55.735Z,13.09
2023-03-30T05:38:23.267Z,13.08
2023-03-30T05:40:53.424Z,13.16
2023-03-30T05:43:21.085Z,13.10
2023-03-30T05:45:49.829Z,12.94
2023-03-30T05:48:17.481Z,12.87
2023-03-30T05:50:44.943Z,12.93
2023-03-30T05:53:12.339Z,12.71
2023-03-30T05:55:39.754Z,12.76
2023-03-30T05:58:08.294Z,12.68
2023-03-30T06:00:37.238Z,12.84
2023-03-30T06:03:06.112Z,12.85
2023-03-30T06:05:35.255Z,13.12
2023-03-30T06:08:04.046Z,13.16
2023-03-30T06:10:31.634Z,12.58
2023-03-30T06:12:59.107Z,13.19
2023-03-30T06:15:27.156Z,13.37
2023-03-30T06:17:55.122Z,13.61
2023-03-30T06:20:26.073Z,13.58
2023-03-30T06:22:53.676Z,13.56
2023-03-30T06:25:23.452Z,13.56
2023-03-30T06:27:50.890Z,13.86
2023-03-30T06:30:18.345Z,13.81
2023-03-30T06:32:45.798Z,13.93
2023-03-30T06:35:15.802Z,13.72
2023-03-30T06:37:44.742Z,14.08
2023-03-30T06:40:13.962Z,13.95
2023-03-30T06:42:44.021Z,13.96
2023-03-30T06:45:12.581Z,14.17
2023-03-30T06:47:41.356Z,13.94
2023-03-30T06:50:09.908Z,13.95
2023-03-30T06:52:38.723Z,13.73
2023-03-30T06:55:09.434Z,13.83
2023-03-30T06:57:37.139Z,13.42
2023-03-30T07:00:10.204Z,14.22
2023-03-30T07:02:37.759Z,14.42
2023-03-30T07:05:06.884Z,14.61
2023-03-30T07:07:34.658Z,14.61
2023-03-30T07:10:02.544Z,13.43
2023-03-30T07:12:31.342Z,14.38
2023-03-30T07:14:58.733Z,14.64
2023-03-30T07:17:27.610Z,14.95
2023-03-30T07:19:55.694Z,14.97
2023-03-30T07:22:23.320Z,15.56
2023-03-30T07:24:50.818Z,14.55
2023-03-30T07:27:18.425Z,14.95
2023-03-30T07:29:47.351Z,15.44
2023-03-30T07:32:14.832Z,15.54
2023-03-30T07:34:42.534Z,15.08
2023-03-30T07:37:10.145Z,15.22
2023-03-30T07:39:37.656Z,15.50
2023-03-30T07:42:05.779Z,15.46
2023-03-30T07:44:33.227Z,15.82
2023-03-30T07:47:04.265Z,16.02
2023-03-30T07:49:32.058Z,16.31
2023-03-30T07:52:00.052Z,16.27
2023-03-30T07:54:27.607Z,16.25
2023-03-30T07:56:55.052Z,16.32
2023-03-30T07:59:24.063Z,16.11
2023-03-30T08:01:52.200Z,14.57
2023-03-30T08:04:22.356Z,15.76
2023-03-30T08:06:52.849Z,15.92
2023-03-30T08:09:26.604Z,16.06
2023-03-30T08:11:54.229Z,16.21
2023-03-30T08:14:23.526Z,16.12
2023-03-30T08:16:50.975Z,16.44
2023-03-30T08:19:18.382Z,16.51
2023-03-30T08:21:47.257Z,16.16
2023-03-30T08:24:14.711Z,16.80
2023-03-30T08:26:42.277Z,17.08
2023-03-30T08:29:10.116Z,16.92
2023-03-30T08:31:37.794Z,16.90
2023-03-30T08:34:06.584Z,17.00
2023-03-30T08:36:34.463Z,17.11
2023-03-30T08:39:04.816Z,16.79
2023-03-30T08:41:49.405Z,17.19
2023-03-30T08:44:29.571Z,17.12
2023-03-30T08:46:57.169Z,17.29
2023-03-30T08:49:26.446Z,17.23
2023-03-30T08:51:55.709Z,17.02
2023-03-30T08:54:25.906Z,17.12
2023-03-30T08:57:01.629Z,17.62
2023-03-30T08:59:37.808Z,16.86
2023-03-30T09:02:16.399Z,17.76
2023-03-30T09:04:58.535Z,18.05
2023-03-30T09:07:28.622Z,18.16
2023-03-30T09:09:58.395Z,18.45
2023-03-30T09:12:37.401Z,18.49
2023-03-30T09:15:09.525Z,17.98
2023-03-30T09:17:41.564Z,18.43
2023-03-30T09:20:14.648Z,19.17
2023-03-30T09:22:44.918Z,19.16
2023-03-30T09:25:20.089Z,18.83
2023-03-30T09:27:59.543Z,18.68
2023-03-30T09:30:33.527Z,19.04
2023-03-30T09:33:07.510Z,19.25
2023-03-30T09:35:41.652Z,19.07
2023-03-30T09:38:12.174Z,18.90
2023-03-30T09:41:07.231Z,18.60
2023-03-30T09:43:41.889Z,18.78
2023-03-30T09:46:09.553Z,19.12
2023-03-30T09:48:42.001Z,19.21
2023-03-30T09:51:21.568Z,19.26
2023-03-30T09:53:51.355Z,19.15
2023-03-30T09:56:26.368Z,19.35
2023-03-30T09:58:53.831Z,19.20
2023-03-30T10:01:22.007Z,19.38
2023-03-30T10:04:08.850Z,19.08
2023-03-30T10:06:39.924Z,18.90
2023-03-30T10:09:12.825Z,18.99
2023-03-30T10:11:44.296Z,18.19
2023-03-30T10:14:23.857Z,18.31
2023-03-30T10:16:51.309Z,18.67
2023-03-30T10:19:21.665Z,17.90
2023-03-30T10:21:49.568Z,18.47
2023-03-30T10:24:23.058Z,18.78
2023-03-30T10:26:55.436Z,18.60
2023-03-30T10:29:24.625Z,18.79
2023-03-30T10:31:58.392Z,18.91
2023-03-30T10:34:36.482Z,17.85
2023-03-30T10:37:07.830Z,17.97
2023-03-30T10:39:37.086Z,18.17
2023-03-30T10:42:07.915Z,18.43
2023-03-30T10:44:37.821Z,18.97
2023-03-30T10:47:20.758Z,18.98
2023-03-30T10:49:56.985Z,19.13
2023-03-30T10:52:33.996Z,18.92
2023-03-30T10:55:07.732Z,19.28
2023-03-30T10:57:48.793Z,18.79
2023-03-30T11:00:29.758Z,18.89
2023-03-30T11:03:04.002Z,19.15
2023-03-30T11:05:35.623Z,18.75
2023-03-30T11:08:06.072Z,19.74
2023-03-30T11:10:37.526Z,19.63
2023-03-30T11:13:08.240Z,18.82
2023-03-30T11:15:41.527Z,18.29
2023-03-30T11:18:17.386Z,18.32
2023-03-30T11:20:50.287Z,19.59
2023-03-30T11:23:27.629Z,18.68
2023-03-30T11:26:01.506Z,19.04
2023-03-30T11:29:07.971Z,18.94
2023-03-30T11:31:49.769Z,19.20
2023-03-30T11:34:27.770Z,18.93
2023-03-30T11:37:02.199Z,19.39
2023-03-30T11:39:32.890Z,19.72
2023-03-30T11:42:08.181Z,19.41
2023-03-30T11:44:36.116Z,19.11
2023-03-30T11:47:20.233Z,18.96
2023-03-30T11:50:02.899Z,19.15
2023-03-30T11:52:35.779Z,19.07
2023-03-30T11:55:25.838Z,19.01
2023-03-30T11:58:06.615Z,18.47
2023-03-30T12:00:50.524Z,19.22
2023-03-30T12:03:31.040Z,19.42
2023-03-30T12:06:07.385Z,19.26
2023-03-30T12:08:48.432Z,19.27
2023-03-30T12:11:26.705Z,19.31
2023-03-30T12:13:54.909Z,19.72
2023-03-30T12:16:28.542Z,19.24
2023-03-30T12:19:10.264Z,18.90
2023-03-30T12:21:43.742Z,18.94
2023-03-30T12:24:18.696Z,19.02
2023-03-30T12:26:58.214Z,19.27
2023-03-30T12:30:00.950Z,19.23
2023-03-30T12:32:31.893Z,19.66
2023-03-30T12:35:00.673Z,19.93
2023-03-30T12:37:33.361Z,19.21
2023-03-30T12:40:06.850Z,19.12
2023-03-30T12:42:35.857Z,19.87
2023-03-30T12:45:32.083Z,19.67
2023-03-30T12:48:14.242Z,19.88
2023-03-30T12:50:53.000Z,20.65
2023-03-30T12:53:51.746Z,20.11
2023-03-30T12:56:31.471Z,20.30
2023-03-30T12:59:24.004Z,20.20
2023-03-30T13:02:02.296Z,20.91
2023-03-30T13:04:35.123Z,20.97
2023-03-30T13:07:06.062Z,20.45
2023-03-30T13:09:51.246Z,20.53
2023-03-30T13:12:32.765Z,19.93
2023-03-30T13:15:20.532Z,20.53
2023-03-30T13:18:00.245Z,20.53
2023-03-30T13:20:33.995Z,20.25
2023-03-30T13:23:25.890Z,20.12
2023-03-30T13:26:03.516Z,19.42
2023-03-30T13:28:56.905Z,19.44
2023-03-30T13:31:49.176Z,19.43
2023-03-30T13:34:30.359Z,19.30
2023-03-30T13:37:05.734Z,19.20
2023-03-30T13:39:42.405Z,18.93
2023-03-30T13:42:28.352Z,19.12
2023-03-30T13:45:02.556Z,19.45
2023-03-30T13:47:45.912Z,18.55
2023-03-30T13:50:21.506Z,15.97
2023-03-30T13:52:51.486Z,14.93
2023-03-30T13:55:27.408Z,14.70
2023-03-30T13:58:01.007Z,14.40
2023-03-30T14:00:40.050Z,14.33
2023-03-30T14:03:31.651Z,15.00
2023-03-30T14:06:03.574Z,14.21
2023-03-30T14:08:35.465Z,14.48
2023-03-30T14:11:08.902Z,13.98
2023-03-30T14:13:38.138Z,13.85
2023-03-30T14:16:07.408Z,13.69
2023-03-30T14:18:35.958Z,13.82
2023-03-30T14:21:05.981Z,14.28
2023-03-30T14:23:38.216Z,14.17
2023-03-30T14:26:14.565Z,14.64
2023-03-30T14:28:42.595Z,14.53
2023-03-30T14:31:17.226Z,15.30
2023-03-30T14:33:45.614Z,15.81
2023-03-30T14:36:16.316Z,15.57
2023-03-30T14:38:47.705Z,15.61
2023-03-30T14:41:22.752Z,15.91
2023-03-30T14:43:56.079Z,15.87
2023-03-30T14:46:25.765Z,15.75
2023-03-30T14:48:53.600Z,14.72
2023-03-30T14:51:25.536Z,15.31
2023-03-30T14:53:54.592Z,15.74
2023-03-30T14:56:24.307Z,15.09
2023-03-30T14:58:53.157Z,15.34
2023-03-30T15:01:30.784Z,15.21
2023-03-30T15:04:08.226Z,15.62
2023-03-30T15:06:37.657Z,15.39
2023-03-30T15:09:10.491Z,15.85
2023-03-30T15:11:40.772Z,15.90
2023-03-30T15:14:11.073Z,15.86
2023-03-30T15:16:39.479Z,15.74
2023-03-30T15:19:14.405Z,15.93
2023-03-30T15:21:43.222Z,16.09
2023-03-30T15:24:17.551Z,15.68
2023-03-30T15:26:49.953Z,15.53
2023-03-30T15:29:19.974Z,15.61
2023-03-30T15:31:47.457Z,15.68
2023-03-30T15:34:16.290Z,14.83
2023-03-30T15:36:44.518Z,15.10
2023-03-30T15:39:21.130Z,15.54
2023-03-30T15:41:58.803Z,15.16
2023-03-30T15:44:26.269Z,15.52
2023-03-30T15:46:57.041Z,15.30
2023-03-30T15:49:31.370Z,15.90
2023-03-30T15:52:01.784Z,15.54
2023-03-30T15:54:34.766Z,15.68
2023-03-30T15:57:08.365Z,16.03
2023-03-30T15:59:41.344Z,15.83
2023-03-30T16:02:16.270Z,15.43
2023-03-30T16:04:44.247Z,15.98
2023-03-30T16:07:16.625Z,15.98
2023-03-30T16:09:44.212Z,15.82
2023-03-30T16:12:16.831Z,15.41
2023-03-30T16:14:44.545Z,15.83
2023-03-30T16:17:13.091Z,15.75
2023-03-30T16:19:41.206Z,16.12
2023-03-30T16:22:09.472Z,16.29
2023-03-30T16:24:37.390Z,15.49
2023-03-30T16:27:05.886Z,15.97
2023-03-30T16:29:35.295Z,16.26
2023-03-30T16:32:02.837Z,16.31
2023-03-30T16:34:30.413Z,15.89
2023-03-30T16:36:57.831Z,16.51
2023-03-30T16:39:27.184Z,16.45
2023-03-30T16:41:55.237Z,15.58
2023-03-30T16:44:24.736Z,15.46
2023-03-30T16:46:53.823Z,15.35
2023-03-30T16:49:22.883Z,15.65
2023-03-30T16:51:51.891Z,15.82
2023-03-30T16:54:30.285Z,15.86
2023-03-30T16:56:59.785Z,15.68
2023-03-30T16:59:30.241Z,15.76
2023-03-30T17:02:00.172Z,16.25
2023-03-30T17:04:27.860Z,15.73
2023-03-30T17:06:55.687Z,15.57
2023-03-30T17:09:23.443Z,15.27
2023-03-30T17:11:51.098Z,15.48
2023-03-30T17:14:20.108Z,16.23
2023-03-30T17:16:47.806Z,15.91
2023-03-30T17:19:16.697Z,15.59
2023-03-30T17:21:45.728Z,15.70
2023-03-30T17:24:15.086Z,15.21
2023-03-30T17:26:42.807Z,15.07
2023-03-30T17:29:10.725Z,15.27
2023-03-30T17:31:38.824Z,15.68
2023-03-30T17:34:07.056Z,15.60
2023-03-30T17:36:35.863Z,15.71
2023-03-30T17:39:04.856Z,15.52
2023-03-30T17:41:34.426Z,15.21
2023-03-30T17:44:01.880Z,15.11
2023-03-30T17:46:29.342Z,14.64
2023-03-30T17:48:58.732Z,15.03
2023-03-30T17:51:26.473Z,15.11
2023-03-30T17:53:55.274Z,14.87
2023-03-30T17:56:22.772Z,14.78
2023-03-30T17:58:51.810Z,15.08
2023-03-30T18:01:19.321Z,15.35
2023-03-30T18:03:46.894Z,14.77
2023-03-30T18:06:14.343Z,15.22
2023-03-30T18:08:42.944Z,15.36
2023-03-30T18:11:11.984Z,15.37
2023-03-30T18:13:39.571Z,15.10
2023-03-30T18:16:07.366Z,14.54
2023-03-30T18:18:34.907Z,14.43
2023-03-30T18:21:05.188Z,14.39
2023-03-30T18:23:34.402Z,14.40
2023-03-30T18:26:03.774Z,15.13
2023-03-30T18:28:32.980Z,14.85
2023-03-30T18:31:00.630Z,15.10
2023-03-30T18:33:28.491Z,14.26
2023-03-30T18:35:57.689Z,14.81
2023-03-30T18:38:25.914Z,15.03
2023-03-30T18:40:57.731Z,15.14
2023-03-30T18:43:26.999Z,15.08
2023-03-30T18:46:00.841Z,15.10
2023-03-30T18:48:29.486Z,15.04
2023-03-30T18:50:57.620Z,14.34
2023-03-30T18:53:26.886Z,14.77
2023-03-30T18:55:57.377Z,15.13
2023-03-30T18:58:27.124Z,15.27
2023-03-30T19:00:56.518Z,15.35
2023-03-30T19:03:24.845Z,15.34
2023-03-30T19:05:52.505Z,14.89
2023-03-30T19:08:21.910Z,13.62
2023-03-30T19:10:52.120Z,12.25
2023-03-30T19:13:22.062Z,12.20
2023-03-30T19:15:50.753Z,12.19
2023-03-30T19:18:20.023Z,12.42
2023-03-30T19:20:49.817Z,12.54
2023-03-30T19:23:18.654Z,12.29
2023-03-30T19:25:46.624Z,12.00
2023-03-30T19:28:14.975Z,11.98
2023-03-30T19:30:43.304Z,12.07
2023-03-30T19:33:15.164Z,12.26
2023-03-30T19:35:45.424Z,12.04
2023-03-30T19:38:13.217Z,12.22
2023-03-30T19:40:41.373Z,11.91
2023-03-30T19:43:09.355Z,11.90
2023-03-30T19:45:38.574Z,11.89
2023-03-30T19:48:06.417Z,12.04
2023-03-30T19:50:34.043Z,12.70
2023-03-30T19:53:02.838Z,13.49
2023-03-30T19:55:30.589Z,13.96
2023-03-30T19:57:58.108Z,14.18
2023-03-30T20:00:25.651Z,14.29
2023-03-30T20:02:55.268Z,13.99
2023-03-30T20:05:24.677Z,13.82
2023-03-30T20:07:52.721Z,13.54
2023-03-30T20:10:23.741Z,13.71
2023-03-30T20:12:52.026Z,13.97
2023-03-30T20:15:21.209Z,13.91
2023-03-30T20:17:48.690Z,13.51
2023-03-30T20:20:25.064Z,13.24
2023-03-30T20:22:56.093Z,13.66
2023-03-30T20:25:25.473Z,13.62
2023-03-30T20:27:53.395Z,13.59
2023-03-30T20:30:21.438Z,13.86
2023-03-30T20:33:03.911Z,13.78
2023-03-30T20:35:34.178Z,13.73
2023-03-30T20:38:04.825Z,13.99
2023-03-30T20:40:33.705Z,13.88
2023-03-30T20:43:02.161Z,13.92
2023-03-30T20:45:30.514Z,13.28
2023-03-30T20:47:58.253Z,13.56
2023-03-30T20:50:25.754Z,13.53
2023-03-30T20:52:53.800Z,12.94
2023-03-30T20:55:21.332Z,13.57
2023-03-30T20:57:50.103Z,13.52
2023-03-30T21:00:18.764Z,13.79
2023-03-30T21:02:46.664Z,13.83
2023-03-30T21:05:14.109Z,13.16
2023-03-30T21:07:46.789Z,13.83
2023-03-30T21:10:16.233Z,13.92
2023-03-30T21:12:43.668Z,13.53
2023-03-30T21:15:12.915Z,13.57
2023-03-30T21:17:40.462Z,13.79
2023-03-30T21:20:10.959Z,13.14
2023-03-30T21:22:38.446Z,13.32
2023-03-30T21:25:06.799Z,13.67
2023-03-30T21:27:34.681Z,13.85
2023-03-30T21:30:02.637Z,14.00
2023-03-30T21:32:31.919Z,13.95
2023-03-30T21:34:59.478Z,14.00
2023-03-30T21:37:27.123Z,13.74
2023-03-30T21:39:54.768Z,13.88
2023-03-30T21:42:22.283Z,13.70
2023-03-30T21:44:49.732Z,13.54
2023-03-30T21:47:17.150Z,13.89
2023-03-30T21:49:45.984Z,14.25
2023-03-30T21:52:13.553Z,14.11
2023-03-30T21:54:40.993Z,14.24
2023-03-30T21:57:08.526Z,13.79
2023-03-30T21:59:36.031Z,14.24
2023-03-30T22:02:03.757Z,14.12
2023-03-30T22:04:31.204Z,14.24
2023-03-30T22:06:59.949Z,14.06
2023-03-30T22:09:27.406Z,13.86
2023-03-30T22:11:55.483Z,12.95
2023-03-30T22:14:23.560Z,13.28
2023-03-30T22:16:50.996Z,13.94
2023-03-30T22:19:18.946Z,14.19
2023-03-30T22:21:46.477Z,14.26
2023-03-30T22:24:15.373Z,14.02
2023-03-30T22:26:42.823Z,13.86
2023-03-30T22:29:10.249Z,14.07
2023-03-30T22:31:37.726Z,13.64
2023-03-30T22:34:05.573Z,14.04
2023-03-30T22:36:33.224Z,14.09
2023-03-30T22:39:02.333Z,13.70
2023-03-30T22:41:31.698Z,13.85
2023-03-30T22:43:59.440Z,14.56
2023-03-30T22:46:28.041Z,14.60
2023-03-30T22:48:56.382Z,15.32
2023-03-30T22:51:27.157Z,15.32
2023-03-30T22:53:57.706Z,15.12
2023-03-30T22:56:25.732Z,14.73
2023-03-30T22:58:54.557Z,14.38
2023-03-30T23:01:22.223Z,13.93
2023-03-30T23:03:50.380Z,14.43
2023-03-30T23:06:19.145Z,14.28
2023-03-30T23:08:48.369Z,14.22
2023-03-30T23:11:16.352Z,14.18
2023-03-30T23:13:43.914Z,14.21
2023-03-30T23:16:12.802Z,14.28
2023-03-30T23:18:40.916Z,14.09
2023-03-30T23:21:11.221Z,12.81
2023-03-30T23:23:39.513Z,12.35
2023-03-30T23:26:09.872Z,13.20
2023-03-30T23:28:39.014Z,13.71
2023-03-30T23:31:10.769Z,14.01
2023-03-30T23:33:39.778Z,13.89
2023-03-30T23:36:08.551Z,14.01
2023-03-30T23:38:37.359Z,13.36
2023-03-30T23:41:06.021Z,12.72
2023-03-30T23:43:33.443Z,13.90
2023-03-30T23:46:00.950Z,14.10
2023-03-30T23:48:28.435Z,14.06
2023-03-30T23:50:59.090Z,14.01
2023-03-30T23:53:26.969Z,13.64
2023-03-30T23:55:54.900Z,12.95
2023-03-30T23:58:22.709Z,12.83
